createdAt,value
2023-12-31T00:02:05.150Z,30.30
2023-12-31T00:04:32.173Z,30.40
2023-12-31T00:06:59.092Z,30.40
2023-12-31T00:09:26.129Z,30.50
2023-12-31T00:11:53.114Z,30.50
2023-12-31T00:14:20.173Z,30.50
2023-12-31T00:16:47.215Z,30.50
2023-12-31T00:19:14.465Z,30.60
2023-12-31T00:21:44.559Z,30.60
2023-12-31T00:24:11.729Z,30.60
2023-12-31T00:26:38.682Z,30.60
2023-12-31T00:29:05.674Z,30.60
2023-12-31T00:31:32.631Z,30.60
2023-12-31T00:33:59.752Z,30.70
2023-12-31T00:36:26.873Z,30.60
2023-12-31T00:38:54.704Z,30.60
2023-12-31T00:41:21.689Z,30.70
2023-12-31T00:43:48.671Z,30.60
2023-12-31T00:46:15.918Z,30.60
2023-12-31T00:48:43.026Z,30.60
2023-12-31T00:51:10.020Z,30.60
2023-12-31T00:53:37.464Z,30.60
2023-12-31T00:56:04.629Z,30.60
2023-12-31T00:58:31.667Z,30.60
2023-12-31T01:00:58.707Z,30.60
2023-12-31T01:03:25.721Z,30.60
2023-12-31T01:05:52.745Z,30.70
2023-12-31T01:08:19.693Z,30.70
2023-12-31T01:10:46.698Z,30.70
2023-12-31T01:13:13.684Z,30.60
2023-12-31T01:15:40.686Z,30.70
2023-12-31T01:18:07.739Z,30.70
2023-12-31T01:20:34.748Z,30.60
2023-12-31T01:23:02.030Z,30.70
2023-12-31T01:25:29.378Z,30.60
2023-12-31T01:27:56.714Z,30.60
2023-12-31T01:30:24.949Z,30.60
2023-12-31T01:32:52.211Z,30.60
2023-12-31T01:35:22.201Z,30.60
2023-12-31T01:37:49.279Z,30.50
2023-12-31T01:40:16.398Z,30.50
2023-12-31T01:42:45.034Z,30.50
2023-12-31T01:45:12.002Z,30.50
2023-12-31T01:47:39.458Z,30.50
2023-12-31T01:50:06.898Z,31.20
2023-12-31T01:52:34.860Z,30.40
2023-12-31T01:55:05.121Z,30.50
2023-12-31T01:57:34.270Z,30.50
2023-12-31T02:00:02.007Z,30.60
2023-12-31T02:02:29.658Z,30.50
2023-12-31T02:04:57.933Z,30.50
2023-12-31T02:07:25.333Z,30.50
2023-12-31T02:09:52.357Z,30.40
2023-12-31T02:12:19.501Z,30.40
2023-12-31T02:14:46.540Z,30.30
2023-12-31T02:17:13.709Z,30.30
2023-12-31T02:19:40.696Z,30.30
2023-12-31T02:22:08.633Z,30.40
2023-12-31T02:24:43.294Z,30.40
2023-12-31T02:27:10.243Z,30.40
2023-12-31T02:29:37.220Z,30.40
2023-12-31T02:32:04.335Z,30.40
2023-12-31T02:34:31.321Z,30.40
2023-12-31T02:36:58.372Z,30.40
2023-12-31T02:39:25.623Z,30.40
2023-12-31T02:41:52.581Z,30.40
2023-12-31T02:44:19.747Z,30.40
2023-12-31T02:46:46.711Z,30.40
2023-12-31T02:49:13.905Z,30.40
2023-12-31T02:51:40.900Z,30.40
2023-12-31T02:54:07.844Z,30.30
2023-12-31T02:56:43.901Z,30.40
2023-12-31T02:59:10.919Z,30.30
2023-12-31T03:01:38.192Z,30.40
2023-12-31T03:04:05.415Z,30.30
2023-12-31T03:06:33.232Z,30.20
2023-12-31T03:09:02.993Z,30.20
2023-12-31T03:11:30.135Z,30.10
2023-12-31T03:13:57.137Z,30.10
2023-12-31T03:16:26.130Z,30.00
2023-12-31T03:18:53.802Z,30.00
2023-12-31T03:21:20.973Z,30.00
2023-12-31T03:23:48.205Z,30.00
2023-12-31T03:26:15.228Z,30.10
2023-12-31T03:28:42.393Z,30.00
2023-12-31T03:31:09.903Z,30.00
2023-12-31T03:33:37.063Z,30.00
2023-12-31T03:36:04.857Z,30.00
2023-12-31T03:38:31.870Z,30.00
2023-12-31T03:40:58.865Z,30.00
2023-12-31T03:43:25.909Z,30.00
2023-12-31T03:45:52.850Z,30.00
2023-12-31T03:48:19.881Z,30.00
2023-12-31T03:50:46.883Z,30.00
2023-12-31T03:53:14.072Z,30.00
2023-12-31T03:55:41.365Z,30.00
2023-12-31T03:58:08.952Z,30.00
2023-12-31T04:00:35.957Z,30.00
2023-12-31T04:03:04.220Z,30.00
2023-12-31T04:05:32.139Z,30.00
2023-12-31T04:07:59.758Z,30.00
2023-12-31T04:10:26.903Z,30.00
2023-12-31T04:12:54.080Z,30.00
2023-12-31T04:15:21.181Z,30.00
2023-12-31T04:17:48.694Z,30.00
2023-12-31T04:20:15.741Z,29.90
2023-12-31T04:22:42.834Z,30.00
2023-12-31T04:25:10.010Z,30.00
2023-12-31T04:27:39.706Z,30.00
2023-12-31T04:30:07.994Z,30.10
2023-12-31T04:32:35.160Z,30.00
2023-12-31T04:35:02.414Z,30.10
2023-12-31T04:37:34.046Z,30.10
2023-12-31T04:40:01.200Z,30.10
2023-12-31T04:42:28.344Z,30.10
2023-12-31T04:44:55.346Z,30.20
2023-12-31T04:47:22.421Z,30.10
2023-12-31T04:49:49.625Z,30.00
2023-12-31T04:52:16.963Z,30.00
2023-12-31T04:54:44.011Z,30.00
2023-12-31T04:57:11.072Z,29.90
2023-12-31T04:59:38.347Z,29.90
2023-12-31T05:02:05.410Z,29.90
2023-12-31T05:04:32.558Z,29.80
2023-12-31T05:07:00.207Z,29.80
2023-12-31T05:09:27.164Z,30.30
2023-12-31T05:11:54.110Z,29.80
2023-12-31T05:14:21.152Z,29.70
2023-12-31T05:16:48.130Z,29.70
2023-12-31T05:19:15.188Z,29.70
2023-12-31T05:21:42.201Z,29.80
2023-12-31T05:24:09.136Z,29.90
2023-12-31T05:26:36.093Z,29.90
2023-12-31T05:29:03.089Z,30.00
2023-12-31T05:31:30.171Z,30.00
2023-12-31T05:33:57.225Z,30.00
2023-12-31T05:36:24.261Z,30.00
2023-12-31T05:38:51.289Z,29.90
2023-12-31T05:41:18.416Z,29.90
2023-12-31T05:43:45.455Z,29.90
2023-12-31T05:46:12.466Z,29.90
2023-12-31T05:48:40.801Z,29.80
2023-12-31T05:51:07.862Z,29.70
2023-12-31T05:53:34.915Z,29.70
2023-12-31T05:56:01.933Z,29.60
2023-12-31T05:58:29.445Z,29.60
2023-12-31T06:00:56.594Z,29.60
2023-12-31T06:03:23.637Z,29.60
2023-12-31T06:05:50.925Z,29.60
2023-12-31T06:08:17.966Z,29.70
2023-12-31T06:10:45.384Z,29.80
2023-12-31T06:13:12.476Z,29.80
2023-12-31T06:15:39.450Z,29.90
2023-12-31T06:18:06.532Z,29.90
2023-12-31T06:20:33.533Z,30.00
2023-12-31T06:23:00.551Z,29.90
2023-12-31T06:25:27.669Z,29.90
2023-12-31T06:27:57.215Z,29.80
2023-12-31T06:30:24.397Z,29.70
2023-12-31T06:32:51.426Z,29.70
2023-12-31T06:35:18.427Z,29.50
2023-12-31T06:37:45.462Z,29.40
2023-12-31T06:40:12.667Z,29.50
2023-12-31T06:42:39.609Z,29.40
2023-12-31T06:45:06.913Z,29.30
2023-12-31T06:47:33.946Z,29.30
2023-12-31T06:50:00.953Z,29.30
2023-12-31T06:52:27.952Z,29.20
2023-12-31T06:54:55.028Z,29.30
2023-12-31T06:57:21.930Z,29.30
2023-12-31T06:59:48.869Z,29.30
2023-12-31T07:02:15.953Z,29.40
2023-12-31T07:04:42.931Z,29.40
2023-12-31T07:09:36.945Z,29.40
2023-12-31T07:12:04.366Z,29.40
2023-12-31T07:14:31.358Z,29.40
2023-12-31T07:16:58.391Z,29.40
2023-12-31T07:19:25.403Z,29.40
2023-12-31T07:21:52.513Z,29.30
2023-12-31T07:24:19.515Z,29.30
2023-12-31T07:26:48.698Z,29.30
2023-12-31T07:29:16.269Z,29.30
2023-12-31T07:31:43.625Z,29.30
2023-12-31T07:34:10.864Z,29.20
2023-12-31T07:36:38.064Z,29.20
2023-12-31T07:39:05.671Z,29.20
2023-12-31T07:41:33.044Z,29.30
2023-12-31T07:44:01.280Z,29.20
2023-12-31T07:46:29.265Z,29.30
2023-12-31T07:48:57.714Z,29.30
2023-12-31T07:51:25.190Z,29.90
2023-12-31T07:53:53.071Z,29.40
2023-12-31T07:56:20.002Z,29.40
2023-12-31T07:58:47.201Z,29.40
2023-12-31T08:01:14.235Z,29.50
2023-12-31T08:03:41.250Z,29.50
2023-12-31T08:06:08.261Z,29.60
2023-12-31T08:08:35.335Z,29.60
2023-12-31T08:11:04.030Z,29.60
2023-12-31T08:13:31.958Z,29.60
2023-12-31T08:15:59.259Z,29.60
2023-12-31T08:18:26.470Z,29.60
2023-12-31T08:20:53.548Z,29.50
2023-12-31T08:23:20.559Z,29.50
2023-12-31T08:25:47.642Z,29.50
2023-12-31T08:28:14.790Z,29.50
2023-12-31T08:30:41.914Z,29.50
2023-12-31T08:33:09.309Z,29.50
2023-12-31T08:35:36.558Z,29.50
2023-12-31T08:38:04.190Z,29.50
2023-12-31T08:40:31.410Z,29.70
2023-12-31T08:42:58.699Z,29.70
2023-12-31T08:45:25.798Z,29.80
2023-12-31T08:47:53.867Z,29.90
2023-12-31T08:50:21.100Z,30.00
2023-12-31T08:52:48.741Z,30.00
2023-12-31T08:55:15.927Z,30.00
2023-12-31T08:57:50.062Z,30.00
2023-12-31T09:00:18.563Z,30.00
2023-12-31T09:02:46.047Z,30.00
2023-12-31T09:05:13.296Z,30.00
2023-12-31T09:07:41.069Z,30.10
2023-12-31T09:10:08.520Z,30.10
2023-12-31T09:12:35.649Z,30.10
2023-12-31T09:15:02.646Z,30.10
2023-12-31T09:17:32.061Z,30.00
2023-12-31T09:19:59.814Z,30.20
2023-12-31T09:22:27.438Z,30.20
2023-12-31T09:24:54.493Z,30.10
2023-12-31T09:27:21.786Z,30.20
2023-12-31T09:29:48.832Z,30.20
2023-12-31T09:32:15.779Z,30.30
2023-12-31T09:34:42.828Z,30.50
2023-12-31T09:37:10.230Z,30.50
2023-12-31T09:39:37.420Z,30.70
2023-12-31T09:42:14.300Z,30.80
2023-12-31T09:44:44.998Z,30.90
2023-12-31T09:47:13.013Z,31.10
2023-12-31T09:49:43.352Z,31.10
2023-12-31T09:52:10.859Z,31.20
2023-12-31T09:54:40.594Z,31.20
2023-12-31T09:57:08.051Z,31.20
2023-12-31T10:02:27.383Z,31.40
2023-12-31T10:04:57.116Z,32.20
2023-12-31T10:07:24.639Z,31.40
2023-12-31T10:09:52.883Z,31.50
2023-12-31T10:12:19.842Z,31.50
2023-12-31T10:14:47.172Z,31.60
2023-12-31T10:17:14.355Z,31.60
2023-12-31T10:19:42.093Z,31.70
2023-12-31T10:22:09.357Z,31.80
2023-12-31T10:24:38.739Z,31.80
2023-12-31T10:27:15.118Z,31.90
2023-12-31T10:29:46.872Z,32.10
2023-12-31T10:32:21.031Z,32.20
2023-12-31T10:35:02.650Z,32.30
2023-12-31T10:37:32.000Z,32.40
2023-12-31T10:39:58.988Z,32.40
2023-12-31T10:42:26.532Z,32.60
2023-12-31T10:44:57.717Z,32.60
2023-12-31T10:47:26.773Z,32.70
2023-12-31T10:49:58.082Z,32.80
2023-12-31T10:52:28.444Z,32.70
2023-12-31T10:54:55.872Z,32.80
2023-12-31T10:57:23.342Z,32.70
2023-12-31T10:59:51.406Z,32.70
2023-12-31T11:02:19.289Z,32.80
2023-12-31T11:04:49.265Z,32.80
2023-12-31T11:07:20.326Z,32.80
2023-12-31T11:09:50.864Z,32.90
2023-12-31T11:12:18.478Z,32.90
2023-12-31T11:14:50.868Z,33.10
2023-12-31T11:17:27.836Z,33.10
2023-12-31T11:20:06.350Z,33.20
2023-12-31T11:22:52.832Z,33.20
2023-12-31T11:25:23.448Z,33.20
2023-12-31T11:27:52.394Z,33.30
2023-12-31T11:30:37.840Z,33.40
2023-12-31T11:33:05.138Z,33.40
2023-12-31T11:35:41.761Z,33.60
2023-12-31T11:38:08.730Z,33.60
2023-12-31T11:40:39.174Z,33.70
2023-12-31T11:43:16.224Z,33.70
2023-12-31T11:45:52.488Z,33.80
2023-12-31T11:48:24.246Z,33.90
2023-12-31T11:50:52.202Z,33.90
2023-12-31T11:53:21.546Z,34.00
2023-12-31T11:56:00.926Z,34.10
2023-12-31T11:58:31.237Z,34.20
2023-12-31T12:00:58.338Z,34.30
2023-12-31T12:03:25.342Z,34.40
2023-12-31T12:05:52.555Z,34.50
2023-12-31T12:08:20.349Z,34.60
2023-12-31T12:10:47.487Z,34.70
2023-12-31T12:13:14.553Z,34.80
2023-12-31T12:15:42.885Z,34.90
2023-12-31T12:18:22.228Z,34.90
2023-12-31T12:20:49.318Z,35.10
2023-12-31T12:23:22.806Z,35.30
2023-12-31T12:25:49.922Z,35.40
2023-12-31T12:28:17.461Z,35.40
2023-12-31T12:30:44.579Z,35.50
2023-12-31T12:33:15.741Z,35.40
2023-12-31T12:35:43.584Z,35.40
2023-12-31T12:38:12.141Z,35.30
2023-12-31T12:40:39.256Z,35.30
2023-12-31T12:43:06.907Z,35.20
2023-12-31T12:45:34.370Z,35.10
2023-12-31T12:48:06.088Z,35.10
2023-12-31T12:50:33.163Z,35.00
2023-12-31T12:53:00.516Z,35.00
2023-12-31T12:55:27.630Z,35.70
2023-12-31T12:57:54.844Z,35.60
2023-12-31T13:00:21.937Z,35.40
2023-12-31T13:02:49.056Z,35.70
2023-12-31T13:05:16.051Z,35.50
2023-12-31T13:08:07.384Z,35.40
2023-12-31T13:10:34.369Z,35.30
2023-12-31T13:13:01.740Z,35.20
2023-12-31T13:15:29.497Z,35.20
2023-12-31T13:17:56.601Z,35.10
2023-12-31T13:20:25.550Z,35.00
2023-12-31T13:22:52.588Z,35.00
2023-12-31T13:25:19.675Z,35.00
2023-12-31T13:27:51.862Z,34.90
2023-12-31T13:30:19.458Z,35.00
2023-12-31T13:32:46.545Z,35.00
2023-12-31T13:35:13.500Z,34.80
2023-12-31T13:37:40.494Z,34.80
2023-12-31T13:40:09.248Z,34.70
2023-12-31T13:42:36.324Z,34.70
2023-12-31T13:45:04.413Z,35.40
2023-12-31T13:47:44.320Z,34.70
2023-12-31T13:50:11.567Z,34.60
2023-12-31T13:52:38.568Z,34.60
2023-12-31T13:55:05.754Z,34.30
2023-12-31T13:57:32.857Z,34.20
2023-12-31T14:00:02.810Z,34.10
2023-12-31T14:02:32.624Z,34.10
2023-12-31T14:04:59.639Z,34.00
2023-12-31T14:07:26.602Z,33.90
2023-12-31T14:09:53.782Z,33.80
2023-12-31T14:12:22.415Z,33.80
2023-12-31T14:14:55.700Z,33.80
2023-12-31T14:17:22.768Z,33.70
2023-12-31T14:19:49.875Z,33.70
2023-12-31T14:22:17.951Z,33.60
2023-12-31T14:24:44.985Z,33.60
2023-12-31T14:27:12.236Z,33.60
2023-12-31T14:29:39.190Z,33.60
2023-12-31T14:32:07.378Z,33.50
2023-12-31T14:34:34.689Z,33.50
2023-12-31T14:37:02.093Z,33.40
2023-12-31T14:39:29.586Z,33.30
2023-12-31T14:41:56.720Z,33.20
2023-12-31T14:44:25.925Z,33.10
2023-12-31T14:46:52.986Z,33.10
2023-12-31T14:49:20.204Z,33.10
2023-12-31T14:51:47.362Z,33.00
2023-12-31T14:54:15.582Z,33.00
2023-12-31T14:56:43.548Z,33.00
2023-12-31T14:59:10.540Z,33.00
2023-12-31T15:01:38.280Z,33.00
2023-12-31T15:04:05.456Z,33.00
2023-12-31T15:06:32.573Z,33.70
2023-12-31T15:09:01.667Z,33.00
2023-12-31T15:11:35.844Z,32.90
2023-12-31T15:14:05.092Z,32.90
2023-12-31T15:16:32.648Z,32.90
2023-12-31T15:18:59.635Z,32.90
2023-12-31T15:21:26.616Z,33.00
2023-12-31T15:23:55.564Z,32.90
2023-12-31T15:26:23.004Z,32.80
2023-12-31T15:28:50.271Z,32.80
2023-12-31T15:31:18.344Z,32.70
2023-12-31T15:33:45.412Z,32.60
2023-12-31T15:36:15.645Z,32.60
2023-12-31T15:38:42.872Z,32.60
2023-12-31T15:41:09.942Z,32.50
2023-12-31T15:43:37.139Z,32.50
2023-12-31T15:46:04.186Z,32.60
2023-12-31T15:48:31.340Z,32.50
2023-12-31T15:50:58.401Z,32.50
2023-12-31T15:53:25.790Z,32.50
2023-12-31T15:55:52.951Z,32.50
2023-12-31T15:58:20.051Z,32.40
2023-12-31T16:00:47.062Z,32.30
2023-12-31T16:03:14.070Z,32.30
2023-12-31T16:05:41.093Z,32.30
2023-12-31T16:08:08.270Z,32.20
2023-12-31T16:10:35.644Z,32.20
2023-12-31T16:13:02.685Z,32.10
2023-12-31T16:15:29.684Z,32.10
2023-12-31T16:17:56.664Z,32.10
2023-12-31T16:20:23.689Z,32.10
2023-12-31T16:22:50.694Z,32.00
2023-12-31T16:25:18.026Z,32.00
2023-12-31T16:27:45.057Z,32.10
2023-12-31T16:30:12.333Z,32.10
2023-12-31T16:32:41.979Z,32.10
2023-12-31T16:35:09.544Z,32.20
2023-12-31T16:37:37.210Z,32.10
2023-12-31T16:40:04.958Z,32.20
2023-12-31T16:42:32.894Z,32.20
2023-12-31T16:44:59.912Z,32.10
2023-12-31T16:47:27.013Z,32.10
2023-12-31T16:49:54.014Z,32.10
2023-12-31T16:52:20.966Z,32.00
2023-12-31T16:54:48.006Z,32.00
2023-12-31T16:57:15.202Z,32.00
2023-12-31T16:59:42.908Z,32.00
2023-12-31T17:02:13.668Z,32.10
2023-12-31T17:04:44.090Z,32.80
2023-12-31T17:07:12.557Z,32.10
2023-12-31T17:09:41.054Z,32.20
2023-12-31T17:12:08.133Z,32.30
2023-12-31T17:14:35.177Z,32.30
2023-12-31T17:17:02.335Z,32.40
2023-12-31T17:19:29.496Z,32.50
2023-12-31T17:21:56.426Z,32.60
2023-12-31T17:24:23.594Z,32.80
2023-12-31T17:26:55.741Z,32.90
2023-12-31T17:29:23.970Z,33.00
2023-12-31T17:31:51.198Z,33.10
2023-12-31T17:34:18.459Z,33.30
2023-12-31T17:36:45.596Z,33.20
2023-12-31T17:39:12.898Z,33.30
2023-12-31T17:41:40.477Z,33.20
2023-12-31T17:44:07.661Z,33.20
2023-12-31T17:46:35.768Z,33.20
2023-12-31T17:49:02.749Z,33.10
2023-12-31T17:51:30.478Z,33.10
2023-12-31T17:53:57.501Z,33.10
2023-12-31T17:56:24.432Z,33.00
2023-12-31T17:58:52.208Z,33.00
2023-12-31T18:01:19.256Z,33.00
2023-12-31T18:03:46.414Z,33.00
2023-12-31T18:06:14.958Z,32.90
2023-12-31T18:08:47.175Z,32.90
2023-12-31T18:11:14.408Z,32.90
2023-12-31T18:13:42.178Z,32.80
2023-12-31T18:16:09.560Z,32.80
2023-12-31T18:18:37.264Z,32.90
2023-12-31T18:21:06.033Z,32.90
2023-12-31T18:23:33.035Z,33.00
2023-12-31T18:26:00.033Z,33.00
2023-12-31T18:28:27.012Z,33.10
2023-12-31T18:30:54.035Z,33.20
2023-12-31T18:33:21.210Z,33.30
2023-12-31T18:35:48.560Z,33.40
2023-12-31T18:38:18.681Z,33.50
2023-12-31T18:40:45.816Z,33.60
2023-12-31T18:43:14.395Z,33.80
2023-12-31T18:45:44.357Z,33.80
2023-12-31T18:48:11.652Z,33.90
2023-12-31T18:50:39.151Z,33.90
2023-12-31T18:53:06.102Z,33.90
2023-12-31T18:55:33.114Z,33.90
2023-12-31T18:58:00.587Z,33.90
2023-12-31T19:00:27.795Z,33.80
2023-12-31T19:02:54.825Z,33.70
2023-12-31T19:05:21.936Z,33.70
2023-12-31T19:07:51.782Z,33.70
2023-12-31T19:10:19.377Z,33.70
2023-12-31T19:12:46.493Z,33.70
2023-12-31T19:15:14.996Z,33.70
2023-12-31T19:17:42.282Z,33.60
2023-12-31T19:20:12.923Z,33.60
2023-12-31T19:22:40.532Z,33.70
2023-12-31T19:25:08.135Z,33.60
2023-12-31T19:27:35.120Z,33.60
2023-12-31T19:30:02.319Z,33.60
2023-12-31T19:32:29.981Z,33.60
2023-12-31T19:34:56.996Z,33.50
2023-12-31T19:37:23.986Z,33.50
2023-12-31T19:39:50.878Z,33.60
2023-12-31T19:42:17.828Z,33.80
2023-12-31T19:44:45.345Z,33.80
2023-12-31T19:47:12.491Z,33.80
2023-12-31T19:49:51.667Z,33.90
2023-12-31T19:52:27.602Z,33.90
2023-12-31T19:54:54.810Z,34.00
2023-12-31T19:57:22.311Z,34.10
2023-12-31T19:59:51.274Z,34.10
2023-12-31T20:02:18.573Z,34.00
2023-12-31T20:04:45.672Z,34.40
2023-12-31T20:07:12.636Z,34.00
2023-12-31T20:09:39.717Z,34.10
2023-12-31T20:12:07.014Z,34.20
2023-12-31T20:14:33.968Z,34.30
2023-12-31T20:17:01.044Z,34.30
2023-12-31T20:19:28.111Z,34.40
2023-12-31T20:21:55.103Z,34.50
2023-12-31T20:24:22.034Z,34.60
2023-12-31T20:26:48.980Z,34.70
2023-12-31T20:29:17.143Z,34.70
2023-12-31T20:31:45.731Z,34.80
2023-12-31T20:34:15.767Z,34.90
2023-12-31T20:36:42.709Z,35.00
2023-12-31T20:39:09.657Z,35.00
2023-12-31T20:41:36.646Z,35.00
2023-12-31T20:44:04.029Z,35.10
2023-12-31T20:46:31.880Z,35.20
2023-12-31T20:48:58.926Z,35.30
2023-12-31T20:51:26.326Z,35.30
2023-12-31T20:53:53.313Z,35.30
2023-12-31T20:56:20.198Z,35.40
2023-12-31T20:58:47.249Z,35.40
2023-12-31T21:01:16.196Z,35.40
2023-12-31T21:03:44.440Z,35.40
2023-12-31T21:06:11.472Z,35.50
2023-12-31T21:08:38.472Z,35.50
2023-12-31T21:11:05.414Z,35.50
2023-12-31T21:13:33.116Z,35.60
2023-12-31T21:16:02.724Z,35.60
2023-12-31T21:18:31.479Z,35.60
2023-12-31T21:20:58.517Z,35.60
2023-12-31T21:23:25.563Z,35.70
2023-12-31T21:25:52.466Z,35.60
2023-12-31T21:28:20.088Z,35.60
2023-12-31T21:30:48.098Z,35.60
2023-12-31T21:33:15.124Z,35.50
2023-12-31T21:35:42.146Z,35.50
2023-12-31T21:38:09.504Z,35.40
2023-12-31T21:40:36.606Z,35.40
2023-12-31T21:43:04.072Z,35.40
2023-12-31T21:45:31.209Z,35.50
2023-12-31T21:47:58.454Z,35.40
2023-12-31T21:50:25.413Z,35.40
2023-12-31T21:52:52.339Z,35.50
2023-12-31T21:55:28.088Z,35.50
2023-12-31T21:58:05.578Z,35.60
2023-12-31T22:00:33.601Z,35.60
2023-12-31T22:03:00.705Z,35.60
2023-12-31T22:05:27.754Z,35.60
2023-12-31T22:07:54.739Z,35.60
2023-12-31T22:10:22.060Z,35.60
2023-12-31T22:12:49.328Z,35.60
2023-12-31T22:15:16.472Z,35.60
2023-12-31T22:17:43.493Z,35.60
2023-12-31T22:20:10.830Z,35.60
2023-12-31T22:22:38.002Z,35.50
2023-12-31T22:25:05.144Z,35.50
2023-12-31T22:27:32.246Z,35.50
2023-12-31T22:29:59.179Z,35.40
2023-12-31T22:32:26.147Z,35.40
2023-12-31T22:34:53.142Z,35.30
2023-12-31T22:37:20.080Z,35.30
2023-12-31T22:39:46.993Z,35.40
2023-12-31T22:42:13.926Z,35.40
2023-12-31T22:44:40.986Z,35.40
2023-12-31T22:47:07.981Z,35.40
2023-12-31T22:49:34.981Z,35.50
2023-12-31T22:52:01.905Z,35.50
2023-12-31T22:54:28.943Z,35.50
2023-12-31T22:56:55.894Z,35.60
2023-12-31T22:59:23.034Z,36.20
2023-12-31T23:01:50.056Z,35.60
2023-12-31T23:04:16.942Z,35.60
2023-12-31T23:06:43.925Z,35.60
2023-12-31T23:09:10.867Z,35.70
2023-12-31T23:11:37.802Z,35.70
2023-12-31T23:14:04.848Z,35.70
2023-12-31T23:16:31.938Z,35.70
2023-12-31T23:18:58.972Z,35.70
2023-12-31T23:21:25.938Z,35.70
2023-12-31T23:23:52.821Z,35.70
2023-12-31T23:26:21.723Z,35.70
2023-12-31T23:28:49.511Z,35.70
2023-12-31T23:31:16.518Z,35.70
2023-12-31T23:33:43.619Z,35.80
2023-12-31T23:36:11.154Z,35.70
2023-12-31T23:38:38.105Z,35.80
2023-12-31T23:41:05.083Z,35.70
2023-12-31T23:43:32.021Z,35.70
2023-12-31T23:45:59.001Z,35.80
2023-12-31T23:48:25.972Z,35.90
2023-12-31T23:50:52.966Z,36.00
2023-12-31T23:53:20.278Z,36.00
2023-12-31T23:56:01.385Z,36.00
2023-12-31T23:58:36.787Z,36.10
